createdAt,value
2017-06-19T00:00:13.552Z,18.99
2017-06-19T00:00:54.097Z,18.99
2017-06-19T00:01:34.644Z,19.04
2017-06-19T00:02:15.191Z,19.04
2017-06-19T00:02:55.730Z,19.06
2017-06-19T00:03:36.272Z,19
2017-06-19T00:04:16.812Z,19.04
2017-06-19T00:04:57.355Z,19.06
2017-06-19T00:05:37.900Z,19
2017-06-19T00:06:18.432Z,19
2017-06-19T00:06:58.978Z,19
2017-06-19T00:07:39.547Z,18.98
2017-06-19T00:08:20.087Z,18.95
2017-06-19T00:09:00.628Z,18.95
2017-06-19T00:09:41.202Z,18.99
2017-06-19T00:10:21.741Z,18.94
2017-06-19T00:11:02.283Z,18.98
2017-06-19T00:11:42.822Z,18.98
2017-06-19T00:12:23.379Z,18.95
2017-06-19T00:13:03.913Z,18.91
2017-06-19T00:13:44.464Z,18.92
2017-06-19T00:14:25.010Z,18.81
2017-06-19T00:15:05.543Z,18.9
2017-06-19T00:15:46.088Z,18.87
2017-06-19T00:16:26.632Z,18.87
2017-06-19T00:17:07.173Z,18.81
2017-06-19T00:17:47.715Z,18.81
2017-06-19T00:18:28.252Z,18.7
2017-06-19T00:19:08.798Z,18.75
2017-06-19T00:19:49.339Z,18.75
2017-06-19T00:20:29.882Z,18.78
2017-06-19T00:21:10.431Z,18.73
2017-06-19T00:21:50.968Z,18.72
2017-06-19T00:22:31.514Z,18.7
2017-06-19T00:23:12.052Z,18.72
2017-06-19T00:23:52.590Z,18.54
2017-06-19T00:24:33.132Z,18.69
2017-06-19T00:25:13.677Z,18.62
2017-06-19T00:25:54.221Z,18.65
2017-06-19T00:26:34.761Z,18.67
2017-06-19T00:27:15.305Z,18.66
2017-06-19T00:27:55.842Z,18.69
2017-06-19T00:28:36.389Z,18.7
2017-06-19T00:29:16.927Z,18.66
2017-06-19T00:29:57.495Z,18.67
2017-06-19T00:30:38.032Z,18.67
2017-06-19T00:31:18.578Z,18.58
2017-06-19T00:31:59.116Z,18.63
2017-06-19T00:32:39.657Z,18.62
2017-06-19T00:33:20.207Z,18.63
2017-06-19T00:34:00.743Z,18.62
2017-06-19T00:34:41.287Z,18.5
2017-06-19T00:35:21.822Z,18.55
2017-06-19T00:36:02.367Z,18.48
2017-06-19T00:36:42.911Z,18.5
2017-06-19T00:37:23.451Z,18.42
2017-06-19T00:38:03.998Z,18.41
2017-06-19T00:38:44.528Z,18.32
2017-06-19T00:39:25.077Z,18.33
2017-06-19T00:40:05.623Z,18.39
2017-06-19T00:40:46.164Z,18.37
2017-06-19T00:41:26.709Z,18.29
2017-06-19T00:42:07.253Z,18.26
2017-06-19T00:42:47.777Z,18.32
2017-06-19T00:43:28.323Z,18.29
2017-06-19T00:44:08.869Z,18.15
2017-06-19T00:44:49.407Z,18.17
2017-06-19T00:45:29.956Z,18.12
2017-06-19T00:46:10.494Z,18.1
2017-06-19T00:46:51.046Z,18.08
2017-06-19T00:47:31.586Z,18.03
2017-06-19T00:48:12.131Z,18
2017-06-19T00:48:52.674Z,17.97
2017-06-19T00:49:33.218Z,18
2017-06-19T00:50:13.763Z,17.96
2017-06-19T00:50:54.305Z,17.96
2017-06-19T00:51:34.839Z,18.05
2017-06-19T00:52:15.379Z,18.03
2017-06-19T00:52:55.924Z,17.92
2017-06-19T00:53:36.460Z,17.96
2017-06-19T00:54:17.002Z,17.97
2017-06-19T00:54:57.550Z,17.96
2017-06-19T00:55:38.091Z,17.95
2017-06-19T00:56:18.635Z,17.93
2017-06-19T00:56:59.178Z,17.96
2017-06-19T00:57:39.718Z,18.07
2017-06-19T00:58:20.264Z,18
2017-06-19T00:59:00.797Z,17.9
2017-06-19T00:59:41.355Z,17.93
2017-06-19T01:00:21.874Z,17.95
2017-06-19T01:01:02.417Z,18.03
2017-06-19T01:01:42.957Z,17.97
2017-06-19T01:02:23.503Z,17.93
2017-06-19T01:03:04.045Z,18.02
2017-06-19T01:03:44.582Z,17.96
2017-06-19T01:04:25.112Z,18
2017-06-19T01:05:05.666Z,17.99
2017-06-19T01:05:46.202Z,17.96
2017-06-19T01:06:26.747Z,17.97
2017-06-19T01:07:07.288Z,17.96
2017-06-19T01:07:47.834Z,17.92
2017-06-19T01:08:28.380Z,17.9
2017-06-19T01:09:08.918Z,17.92
2017-06-19T01:09:49.469Z,17.89
2017-06-19T01:10:30.013Z,17.92
2017-06-19T01:11:10.556Z,17.9
2017-06-19T01:11:51.097Z,17.77
2017-06-19T01:12:31.645Z,17.81
2017-06-19T01:13:12.192Z,17.81
2017-06-19T01:13:52.734Z,17.81
2017-06-19T01:14:33.279Z,17.77
2017-06-19T01:15:13.825Z,17.78
2017-06-19T01:15:54.362Z,17.82
2017-06-19T01:16:34.908Z,17.78
2017-06-19T01:17:15.449Z,17.75
2017-06-19T01:17:55.991Z,17.77
2017-06-19T01:18:36.532Z,17.77
2017-06-19T01:19:17.093Z,17.84
2017-06-19T01:19:57.636Z,17.77
2017-06-19T01:20:38.170Z,17.78
2017-06-19T01:21:18.714Z,17.79
2017-06-19T01:21:59.253Z,17.79
2017-06-19T01:22:39.793Z,17.82
2017-06-19T01:23:20.336Z,17.9
2017-06-19T01:24:00.879Z,17.81
2017-06-19T01:24:41.415Z,17.89
2017-06-19T01:25:21.952Z,17.86
2017-06-19T01:26:02.498Z,17.82
2017-06-19T01:26:43.042Z,17.79
2017-06-19T01:27:23.587Z,17.78
2017-06-19T01:28:04.175Z,17.84
2017-06-19T01:28:44.722Z,17.78
2017-06-19T01:29:25.263Z,17.81
2017-06-19T01:30:05.806Z,17.81
2017-06-19T01:30:46.350Z,17.77
2017-06-19T01:31:26.893Z,17.86
2017-06-19T01:32:07.438Z,17.72
2017-06-19T01:32:47.989Z,17.7
2017-06-19T01:33:28.531Z,17.75
2017-06-19T01:34:09.074Z,17.74
2017-06-19T01:34:49.623Z,17.68
2017-06-19T01:35:30.169Z,17.66
2017-06-19T01:36:10.708Z,17.55
2017-06-19T01:36:51.253Z,17.55
2017-06-19T01:37:31.786Z,17.56
2017-06-19T01:38:12.331Z,17.54
2017-06-19T01:38:52.868Z,17.44
2017-06-19T01:39:33.415Z,17.4
2017-06-19T01:40:13.957Z,17.37
2017-06-19T01:40:54.502Z,17.3
2017-06-19T01:41:35.050Z,17.3
2017-06-19T01:42:15.596Z,17.3
2017-06-19T01:42:56.135Z,17.26
2017-06-19T01:43:36.682Z,17.19
2017-06-19T01:44:17.229Z,17.23
2017-06-19T01:44:57.770Z,17.26
2017-06-19T01:45:38.309Z,17.18
2017-06-19T01:46:18.855Z,17.19
2017-06-19T01:46:59.393Z,17.07
2017-06-19T01:47:39.933Z,17.08
2017-06-19T01:48:20.539Z,17.11
2017-06-19T01:49:01.085Z,17.06
2017-06-19T01:49:41.634Z,17.12
2017-06-19T01:50:22.174Z,17.06
2017-06-19T01:51:02.715Z,17.03
2017-06-19T01:51:43.255Z,17.01
2017-06-19T01:52:23.796Z,17.01
2017-06-19T01:53:04.332Z,16.89
2017-06-19T01:53:44.881Z,16.94
2017-06-19T01:54:25.422Z,16.96
2017-06-19T01:55:05.966Z,16.91
2017-06-19T01:55:46.528Z,16.89
2017-06-19T01:56:27.045Z,16.96
2017-06-19T01:57:07.584Z,16.85
2017-06-19T01:57:48.109Z,16.85
2017-06-19T01:58:28.657Z,16.88
2017-06-19T01:59:09.198Z,16.94
2017-06-19T01:59:49.741Z,16.89
2017-06-19T02:00:30.290Z,16.83
2017-06-19T02:01:10.827Z,16.78
2017-06-19T02:01:51.376Z,16.82
2017-06-19T02:02:31.924Z,16.83
2017-06-19T02:03:12.460Z,16.78
2017-06-19T02:03:53.004Z,16.81
2017-06-19T02:04:33.551Z,16.79
2017-06-19T02:05:14.092Z,16.79
2017-06-19T02:05:54.622Z,16.81
2017-06-19T02:06:35.167Z,16.71
2017-06-19T02:07:15.702Z,16.76
2017-06-19T02:07:56.247Z,16.78
2017-06-19T02:08:36.782Z,16.68
2017-06-19T02:09:17.326Z,16.67
2017-06-19T02:09:57.877Z,16.75
2017-06-19T02:10:38.421Z,16.66
2017-06-19T02:11:18.964Z,16.68
2017-06-19T02:11:59.510Z,16.67
2017-06-19T02:12:40.052Z,16.64
2017-06-19T02:13:20.593Z,16.66
2017-06-19T02:14:01.139Z,16.6
2017-06-19T02:14:41.676Z,16.66
2017-06-19T02:15:22.205Z,16.57
2017-06-19T02:16:02.756Z,16.56
2017-06-19T02:16:43.295Z,16.68
2017-06-19T02:17:23.836Z,16.53
2017-06-19T02:18:04.386Z,16.57
2017-06-19T02:18:44.929Z,16.64
2017-06-19T02:19:25.469Z,16.58
2017-06-19T02:20:06.018Z,16.61
2017-06-19T02:20:46.565Z,16.71
2017-06-19T02:21:27.117Z,16.66
2017-06-19T02:22:07.659Z,16.68
2017-06-19T02:22:48.199Z,16.7
2017-06-19T02:23:28.736Z,16.67
2017-06-19T02:24:09.283Z,16.7
2017-06-19T02:24:49.822Z,16.71
2017-06-19T02:25:30.367Z,16.7
2017-06-19T02:26:10.914Z,16.63
2017-06-19T02:26:51.453Z,16.73
2017-06-19T02:27:31.997Z,16.71
2017-06-19T02:28:12.546Z,16.66
2017-06-19T02:28:53.092Z,16.68
2017-06-19T02:29:33.634Z,16.71
2017-06-19T02:30:14.179Z,16.71
2017-06-19T02:30:54.740Z,16.71
2017-06-19T02:31:35.250Z,16.71
2017-06-19T02:32:15.792Z,16.67
2017-06-19T02:32:56.333Z,16.61
2017-06-19T02:33:36.875Z,16.66
2017-06-19T02:34:17.418Z,16.61
2017-06-19T02:34:57.961Z,16.68
2017-06-19T02:35:38.506Z,16.57
2017-06-19T02:36:19.048Z,16.58
2017-06-19T02:36:59.594Z,16.57
2017-06-19T02:37:40.135Z,16.5
2017-06-19T02:38:20.675Z,16.56
2017-06-19T02:39:01.208Z,16.48
2017-06-19T02:39:41.747Z,16.43
2017-06-19T02:40:22.287Z,16.43
2017-06-19T02:41:02.825Z,16.42
2017-06-19T02:41:43.366Z,16.43
2017-06-19T02:42:23.905Z,16.41
2017-06-19T02:43:04.446Z,16.41
2017-06-19T02:43:44.994Z,16.43
2017-06-19T02:44:25.541Z,16.45
2017-06-19T02:45:06.075Z,16.31
2017-06-19T02:45:46.609Z,16.34
2017-06-19T02:46:27.151Z,16.42
2017-06-19T02:47:07.689Z,16.35
2017-06-19T02:47:48.238Z,16.27
2017-06-19T02:48:28.774Z,16.23
2017-06-19T02:49:09.320Z,16.28
2017-06-19T02:49:49.865Z,16.3
2017-06-19T02:50:30.403Z,16.33
2017-06-19T02:51:10.953Z,16.25
2017-06-19T02:51:51.490Z,16.34
2017-06-19T02:52:32.036Z,16.34
2017-06-19T02:53:12.580Z,16.25
2017-06-19T02:53:53.116Z,16.3
2017-06-19T02:54:33.658Z,16.3
2017-06-19T02:55:14.197Z,16.25
2017-06-19T02:55:54.743Z,16.34
2017-06-19T02:56:35.285Z,16.25
2017-06-19T02:57:15.830Z,16.27
2017-06-19T02:57:56.376Z,16.25
2017-06-19T02:58:36.911Z,16.24
2017-06-19T02:59:17.458Z,16.25
2017-06-19T02:59:57.998Z,16.24
2017-06-19T03:00:38.540Z,16.21
2017-06-19T03:01:19.078Z,16.27
2017-06-19T03:01:59.623Z,16.24
2017-06-19T03:02:40.168Z,16.27
2017-06-19T03:03:20.710Z,16.23
2017-06-19T03:04:01.254Z,16.23
2017-06-19T03:04:41.806Z,16.24
2017-06-19T03:05:22.346Z,16.17
2017-06-19T03:06:02.887Z,16.08
2017-06-19T03:06:43.430Z,16.05
2017-06-19T03:07:23.973Z,16.09
2017-06-19T03:08:04.518Z,16.11
2017-06-19T03:08:45.068Z,16.02
2017-06-19T03:09:25.619Z,16.02
2017-06-19T03:10:06.163Z,16.12
2017-06-19T03:10:46.706Z,16.07
2017-06-19T03:11:27.240Z,16.07
2017-06-19T03:12:07.786Z,16.04
2017-06-19T03:12:48.327Z,16.04
2017-06-19T03:13:28.866Z,16.11
2017-06-19T03:14:09.416Z,16.07
2017-06-19T03:14:49.965Z,16.08
2017-06-19T03:15:30.504Z,16.07
2017-06-19T03:16:11.052Z,16.09
2017-06-19T03:16:51.598Z,16.02
2017-06-19T03:17:32.135Z,16.08
2017-06-19T03:18:12.680Z,16.05
2017-06-19T03:18:53.227Z,16.08
2017-06-19T03:19:33.766Z,16.01
2017-06-19T03:20:14.311Z,16.02
2017-06-19T03:20:54.847Z,16.07
2017-06-19T03:21:35.393Z,16.02
2017-06-19T03:22:15.927Z,16.05
2017-06-19T03:22:56.477Z,16.08
2017-06-19T03:23:37.015Z,16.07
2017-06-19T03:24:17.566Z,16
2017-06-19T03:24:58.107Z,16.02
2017-06-19T03:25:38.662Z,16
2017-06-19T03:26:19.289Z,16.08
2017-06-19T03:26:59.831Z,15.92
2017-06-19T03:27:40.371Z,16.07
2017-06-19T03:28:20.913Z,16.02
2017-06-19T03:29:01.471Z,16.05
2017-06-19T03:29:42.011Z,15.97
2017-06-19T03:30:22.574Z,16.02
2017-06-19T03:31:03.107Z,15.97
2017-06-19T03:31:43.648Z,16
2017-06-19T03:32:24.189Z,16.08
2017-06-19T03:33:04.740Z,16.01
2017-06-19T03:33:45.288Z,15.92
2017-06-19T03:34:25.888Z,16.02
2017-06-19T03:35:06.423Z,16.02
2017-06-19T03:35:46.963Z,16.04
2017-06-19T03:36:27.504Z,16
2017-06-19T03:37:08.106Z,16.07
2017-06-19T03:37:48.655Z,16.01
2017-06-19T03:38:29.204Z,16.05
2017-06-19T03:39:09.745Z,15.97
2017-06-19T03:39:50.288Z,16.05
2017-06-19T03:40:30.830Z,16.01
2017-06-19T03:41:11.373Z,16.04
2017-06-19T03:41:51.910Z,16.09
2017-06-19T03:42:32.452Z,16.02
2017-06-19T03:43:13.001Z,16.05
2017-06-19T03:43:53.540Z,16.08
2017-06-19T03:44:34.087Z,16.05
2017-06-19T03:45:14.693Z,16.14
2017-06-19T03:45:55.231Z,16.01
2017-06-19T03:46:35.781Z,16.08
2017-06-19T03:47:16.316Z,16.12
2017-06-19T03:47:56.859Z,16.11
2017-06-19T03:48:37.395Z,16.02
2017-06-19T03:49:17.942Z,16.07
2017-06-19T03:49:58.489Z,16.07
2017-06-19T03:50:39.028Z,16.01
2017-06-19T03:51:19.577Z,16.04
2017-06-19T03:52:00.122Z,16.07
2017-06-19T03:52:40.665Z,16.08
2017-06-19T03:53:21.205Z,16.04
2017-06-19T03:54:01.735Z,15.93
2017-06-19T03:54:42.274Z,16.04
2017-06-19T03:55:22.821Z,16.02
2017-06-19T03:56:03.366Z,16.01
2017-06-19T03:56:43.905Z,16.08
2017-06-19T03:57:24.472Z,16.05
2017-06-19T03:58:05.013Z,16
2017-06-19T03:58:45.554Z,16.04
2017-06-19T03:59:26.106Z,16.04
2017-06-19T04:00:06.664Z,16.01
2017-06-19T04:00:47.209Z,16.01
2017-06-19T04:01:27.756Z,15.97
2017-06-19T04:02:08.296Z,15.89
2017-06-19T04:02:48.839Z,15.94
2017-06-19T04:03:29.387Z,16.01
2017-06-19T04:04:09.923Z,16.04
2017-06-19T04:04:50.455Z,16.05
2017-06-19T04:05:31.038Z,16.05
2017-06-19T04:06:11.563Z,16.07
2017-06-19T04:06:52.130Z,16.01
2017-06-19T04:07:32.632Z,16.01
2017-06-19T04:08:13.170Z,16.05
2017-06-19T04:08:53.714Z,16.01
2017-06-19T04:09:34.262Z,15.97
2017-06-19T04:10:14.799Z,16.02
2017-06-19T04:10:55.345Z,16.01
2017-06-19T04:11:35.891Z,16.02
2017-06-19T04:12:16.449Z,16.04
2017-06-19T04:12:56.994Z,15.92
2017-06-19T04:13:37.546Z,16.01
2017-06-19T04:14:18.099Z,16.04
2017-06-19T04:14:58.635Z,16.01
2017-06-19T04:15:39.173Z,16.05
2017-06-19T04:16:19.713Z,15.97
2017-06-19T04:17:00.259Z,16.02
2017-06-19T04:17:40.793Z,16.04
2017-06-19T04:18:21.323Z,15.96
2017-06-19T04:19:01.867Z,16.01
2017-06-19T04:19:42.409Z,15.96
2017-06-19T04:20:22.973Z,16.01
2017-06-19T04:21:03.502Z,16.01
2017-06-19T04:21:44.037Z,16
2017-06-19T04:22:24.586Z,16.05
2017-06-19T04:23:05.216Z,16
2017-06-19T04:23:45.851Z,16
2017-06-19T04:24:26.762Z,16.04
2017-06-19T04:25:07.364Z,16
2017-06-19T04:25:47.908Z,16.07
2017-06-19T04:26:28.467Z,15.92
2017-06-19T04:27:09.017Z,15.92
2017-06-19T04:27:49.569Z,16.02
2017-06-19T04:28:30.102Z,16.02
2017-06-19T04:29:10.641Z,15.93
2017-06-19T04:29:51.186Z,16.02
2017-06-19T04:30:31.731Z,16.02
2017-06-19T04:31:12.276Z,16.01
2017-06-19T04:31:52.821Z,16.04
2017-06-19T04:32:33.363Z,16.01
2017-06-19T04:33:13.908Z,16
2017-06-19T04:33:54.440Z,15.97
2017-06-19T04:34:34.986Z,15.96
2017-06-19T04:35:15.517Z,16.04
2017-06-19T04:35:56.058Z,15.94
2017-06-19T04:36:36.584Z,16.02
2017-06-19T04:37:17.136Z,16.01
2017-06-19T04:37:57.684Z,16.05
2017-06-19T04:38:38.225Z,16.01
2017-06-19T04:39:18.798Z,16.04
2017-06-19T04:39:59.451Z,16.01
2017-06-19T04:40:40.034Z,16.04
2017-06-19T04:41:20.587Z,16.04
2017-06-19T04:42:01.122Z,16.07
2017-06-19T04:42:41.679Z,16.04
2017-06-19T04:43:22.226Z,16.09
2017-06-19T04:44:02.771Z,16.07
2017-06-19T04:44:43.306Z,16.09
2017-06-19T04:45:23.851Z,16.09
2017-06-19T04:46:04.382Z,15.97
2017-06-19T04:46:44.924Z,16.02
2017-06-19T04:47:25.470Z,16.08
2017-06-19T04:48:06.014Z,16.02
2017-06-19T04:48:46.559Z,16.07
2017-06-19T04:49:27.095Z,16.08
2017-06-19T04:50:07.642Z,16.12
2017-06-19T04:50:48.180Z,16.15
2017-06-19T04:51:28.732Z,16.09
2017-06-19T04:52:09.277Z,16.12
2017-06-19T04:52:49.815Z,16.12
2017-06-19T04:53:30.359Z,16.11
2017-06-19T04:54:10.916Z,16.14
2017-06-19T04:54:51.459Z,16.14
2017-06-19T04:55:31.996Z,16.14
2017-06-19T04:56:12.537Z,16.2
2017-06-19T04:56:53.071Z,16.2
2017-06-19T04:57:33.619Z,16.21
2017-06-19T04:58:14.161Z,16.21
2017-06-19T04:58:54.703Z,16.11
2017-06-19T04:59:35.241Z,16.17
2017-06-19T05:00:15.846Z,16.17
2017-06-19T05:00:56.398Z,16.21
2017-06-19T05:01:36.911Z,16.14
2017-06-19T05:02:17.459Z,16.2
2017-06-19T05:02:57.996Z,16.23
2017-06-19T05:03:38.544Z,16.27
2017-06-19T05:04:19.082Z,16.25
2017-06-19T05:04:59.630Z,16.23
2017-06-19T05:05:40.168Z,16.28
2017-06-19T05:06:20.719Z,16.24
2017-06-19T05:07:01.258Z,16.27
2017-06-19T05:07:41.783Z,16.28
2017-06-19T05:08:22.317Z,16.28
2017-06-19T05:09:02.868Z,16.34
2017-06-19T05:09:43.407Z,16.24
2017-06-19T05:10:23.951Z,16.27
2017-06-19T05:11:04.503Z,16.39
2017-06-19T05:11:45.055Z,16.38
2017-06-19T05:12:25.603Z,16.39
2017-06-19T05:13:06.155Z,16.42
2017-06-19T05:13:46.702Z,16.39
2017-06-19T05:14:27.248Z,16.41
2017-06-19T05:15:07.804Z,16.43
2017-06-19T05:15:48.356Z,16.45
2017-06-19T05:16:28.896Z,16.41
2017-06-19T05:17:09.438Z,16.45
2017-06-19T05:17:49.986Z,16.5
2017-06-19T05:18:30.531Z,16.49
2017-06-19T05:19:11.056Z,16.52
2017-06-19T05:19:51.601Z,16.48
2017-06-19T05:20:32.145Z,16.58
2017-06-19T05:21:12.678Z,16.57
2017-06-19T05:21:53.231Z,16.56
2017-06-19T05:22:33.765Z,16.52
2017-06-19T05:23:14.356Z,16.67
2017-06-19T05:23:54.849Z,16.67
2017-06-19T05:24:35.384Z,16.67
2017-06-19T05:25:15.928Z,16.67
2017-06-19T05:25:56.448Z,16.76
2017-06-19T05:26:36.965Z,16.75
2017-06-19T05:27:17.510Z,16.83
2017-06-19T05:27:58.049Z,16.81
2017-06-19T05:28:38.578Z,16.85
2017-06-19T05:29:19.112Z,16.86
2017-06-19T05:29:59.655Z,16.89
2017-06-19T05:30:40.188Z,16.89
2017-06-19T05:31:20.726Z,16.96
2017-06-19T05:32:01.275Z,16.91
2017-06-19T05:32:41.827Z,16.94
2017-06-19T05:33:22.374Z,17
2017-06-19T05:34:02.923Z,17.01
2017-06-19T05:34:43.471Z,17.14
2017-06-19T05:35:24.009Z,17.08
2017-06-19T05:36:04.524Z,17.01
2017-06-19T05:36:45.064Z,17.07
2017-06-19T05:37:25.598Z,17.16
2017-06-19T05:38:06.133Z,17.16
2017-06-19T05:38:46.679Z,17.22
2017-06-19T05:39:27.217Z,17.26
2017-06-19T05:40:07.747Z,17.26
2017-06-19T05:40:48.305Z,17.34
2017-06-19T05:41:28.842Z,17.34
2017-06-19T05:42:09.382Z,17.46
2017-06-19T05:42:49.900Z,17.52
2017-06-19T05:43:30.452Z,17.52
2017-06-19T05:44:11.023Z,17.56
2017-06-19T05:44:51.560Z,17.54
2017-06-19T05:45:32.103Z,17.66
2017-06-19T05:46:12.651Z,17.62
2017-06-19T05:46:53.201Z,17.78
2017-06-19T05:47:33.739Z,17.77
2017-06-19T05:48:14.291Z,17.84
2017-06-19T05:48:54.834Z,17.95
2017-06-19T05:49:35.631Z,17.89
2017-06-19T05:50:16.364Z,18
2017-06-19T05:50:56.906Z,17.95
2017-06-19T05:51:37.434Z,18.05
2017-06-19T05:52:17.976Z,18.08
2017-06-19T05:52:58.514Z,18.11
2017-06-19T05:53:39.040Z,18.25
2017-06-19T05:54:19.570Z,18.29
2017-06-19T05:55:00.107Z,18.29
2017-06-19T05:55:40.653Z,18.32
2017-06-19T05:56:21.197Z,18.5
2017-06-19T05:57:01.749Z,18.54
2017-06-19T05:57:42.262Z,18.51
2017-06-19T05:58:22.777Z,18.63
2017-06-19T05:59:03.303Z,18.6
2017-06-19T05:59:43.845Z,18.66
2017-06-19T06:00:24.406Z,18.69
2017-06-19T06:01:04.959Z,18.76
2017-06-19T06:01:45.513Z,18.84
2017-06-19T06:02:26.051Z,18.87
2017-06-19T06:03:06.594Z,18.91
2017-06-19T06:03:47.115Z,18.95
2017-06-19T06:04:27.653Z,19.07
2017-06-19T06:05:08.183Z,19.04
2017-06-19T06:05:48.719Z,19.14
2017-06-19T06:06:29.282Z,19.14
2017-06-19T06:07:09.838Z,19.22
2017-06-19T06:07:50.365Z,19.33
2017-06-19T06:08:30.914Z,19.33
2017-06-19T06:09:11.439Z,19.41
2017-06-19T06:09:51.968Z,19.4
2017-06-19T06:10:32.495Z,19.5
2017-06-19T06:11:13.010Z,19.58
2017-06-19T06:11:53.544Z,19.61
2017-06-19T06:12:34.097Z,19.69
2017-06-19T06:13:14.647Z,19.73
2017-06-19T06:13:55.138Z,19.8
2017-06-19T06:14:35.691Z,19.78
2017-06-19T06:15:16.238Z,19.81
2017-06-19T06:15:56.760Z,19.76
2017-06-19T06:16:37.278Z,19.88
2017-06-19T06:17:17.801Z,19.86
2017-06-19T06:17:58.342Z,19.99
2017-06-19T06:18:38.876Z,19.98
2017-06-19T06:19:19.423Z,20.06
2017-06-19T06:19:59.966Z,20.06
2017-06-19T06:20:40.511Z,20.17
2017-06-19T06:21:21.058Z,20.2
2017-06-19T06:22:01.608Z,20.32
2017-06-19T06:22:42.154Z,20.32
2017-06-19T06:23:22.708Z,20.36
2017-06-19T06:24:03.257Z,20.42
2017-06-19T06:24:43.807Z,20.42
2017-06-19T06:25:24.347Z,20.39
2017-06-19T06:26:04.899Z,20.38
2017-06-19T06:26:45.449Z,20.43
2017-06-19T06:27:25.982Z,20.5
2017-06-19T06:28:06.526Z,20.58
2017-06-19T06:28:47.089Z,20.67
2017-06-19T06:29:27.624Z,20.62
2017-06-19T06:30:08.168Z,20.73
2017-06-19T06:30:48.714Z,20.7
2017-06-19T06:31:29.263Z,20.79
2017-06-19T06:32:09.811Z,20.87
2017-06-19T06:32:50.357Z,20.94
2017-06-19T06:33:30.905Z,20.97
2017-06-19T06:34:11.449Z,20.97
2017-06-19T06:34:51.992Z,21.04
2017-06-19T06:35:32.536Z,21.07
2017-06-19T06:36:13.100Z,21.17
2017-06-19T06:36:53.650Z,21.19
2017-06-19T06:37:34.200Z,21.34
2017-06-19T06:38:14.751Z,21.32
2017-06-19T06:38:55.293Z,21.49
2017-06-19T06:39:35.833Z,21.54
2017-06-19T06:40:16.379Z,21.61
2017-06-19T06:40:56.938Z,21.68
2017-06-19T06:41:37.475Z,21.64
2017-06-19T06:42:18.023Z,21.61
2017-06-19T06:42:58.579Z,21.59
2017-06-19T06:43:39.133Z,21.58
2017-06-19T06:44:19.690Z,21.47
2017-06-19T06:45:00.234Z,21.46
2017-06-19T06:45:40.768Z,21.47
2017-06-19T06:46:21.299Z,21.47
2017-06-19T06:47:01.856Z,21.49
2017-06-19T06:47:42.397Z,21.47
2017-06-19T06:48:22.977Z,21.44
2017-06-19T06:49:03.519Z,21.46
2017-06-19T06:49:44.070Z,21.54
2017-06-19T06:50:24.604Z,21.67
2017-06-19T06:51:05.147Z,21.72
2017-06-19T06:51:45.694Z,21.69
2017-06-19T06:52:26.230Z,21.71
2017-06-19T06:53:06.779Z,21.72
2017-06-19T06:53:47.343Z,21.71
2017-06-19T06:54:27.889Z,21.67
2017-06-19T06:55:08.427Z,21.74
2017-06-19T06:55:48.974Z,21.83
2017-06-19T06:56:29.521Z,21.88
2017-06-19T06:57:10.072Z,21.92
2017-06-19T06:57:50.627Z,21.86
2017-06-19T06:58:31.196Z,21.88
2017-06-19T06:59:11.737Z,21.91
2017-06-19T06:59:52.274Z,22.02
2017-06-19T07:00:32.837Z,22.03
2017-06-19T07:01:13.384Z,22.12
2017-06-19T07:01:53.934Z,22.22
2017-06-19T07:02:34.480Z,22.2
2017-06-19T07:03:15.029Z,22.24
2017-06-19T07:03:55.580Z,22.27
2017-06-19T07:04:36.135Z,22.36
2017-06-19T07:05:16.702Z,22.42
2017-06-19T07:05:57.233Z,22.57
2017-06-19T07:06:37.789Z,22.58
2017-06-19T07:07:18.338Z,22.7
2017-06-19T07:07:58.890Z,22.76
2017-06-19T07:08:39.435Z,22.75
2017-06-19T07:09:19.987Z,22.68
2017-06-19T07:10:00.542Z,22.75
2017-06-19T07:10:41.093Z,22.76
2017-06-19T07:11:21.642Z,22.7
2017-06-19T07:12:02.189Z,22.82
2017-06-19T07:12:42.747Z,22.8
2017-06-19T07:13:23.298Z,22.91
2017-06-19T07:14:03.848Z,23.01
2017-06-19T07:14:44.397Z,22.97
2017-06-19T07:15:24.951Z,23.01
2017-06-19T07:16:05.499Z,23
2017-06-19T07:16:46.045Z,23.17
2017-06-19T07:17:26.595Z,23.17
2017-06-19T07:18:07.155Z,23.15
2017-06-19T07:18:47.703Z,23.33
2017-06-19T07:19:28.254Z,23.38
2017-06-19T07:20:08.806Z,23.19
2017-06-19T07:20:49.356Z,22.98
2017-06-19T07:21:29.904Z,23
2017-06-19T07:22:10.457Z,22.92
2017-06-19T07:22:51.009Z,22.83
2017-06-19T07:23:31.559Z,22.79
2017-06-19T07:24:12.110Z,22.86
2017-06-19T07:24:52.660Z,22.72
2017-06-19T07:25:33.215Z,22.82
2017-06-19T07:26:13.763Z,22.83
2017-06-19T07:26:54.303Z,22.79
2017-06-19T07:27:34.847Z,22.73
2017-06-19T07:28:15.399Z,22.77
2017-06-19T07:28:55.946Z,22.77
2017-06-19T07:29:36.496Z,22.79
2017-06-19T07:30:17.045Z,22.7
2017-06-19T07:30:57.597Z,22.73
2017-06-19T07:31:38.137Z,22.76
2017-06-19T07:32:18.700Z,22.72
2017-06-19T07:32:59.244Z,22.72
2017-06-19T07:33:39.796Z,22.83
2017-06-19T07:34:20.353Z,22.83
2017-06-19T07:35:00.898Z,22.94
2017-06-19T07:35:41.464Z,23.02
2017-06-19T07:36:21.992Z,23.12
2017-06-19T07:37:02.544Z,23.02
2017-06-19T07:37:43.094Z,23.04
2017-06-19T07:38:23.647Z,23.09
2017-06-19T07:39:04.188Z,23.12
2017-06-19T07:39:44.736Z,23.12
2017-06-19T07:40:25.283Z,23.16
2017-06-19T07:41:05.833Z,23.2
2017-06-19T07:41:46.382Z,23.2
2017-06-19T07:42:26.930Z,23.17
2017-06-19T07:43:07.470Z,23.1
2017-06-19T07:43:48.024Z,23.31
2017-06-19T07:44:28.569Z,23.32
2017-06-19T07:45:09.115Z,23.32
2017-06-19T07:45:49.658Z,23.32
2017-06-19T07:46:30.206Z,23.36
2017-06-19T07:47:10.758Z,23.4
2017-06-19T07:47:51.305Z,23.28
2017-06-19T07:48:31.854Z,23.33
2017-06-19T07:49:12.404Z,23.42
2017-06-19T07:49:52.955Z,23.46
2017-06-19T07:50:33.505Z,23.5
2017-06-19T07:51:14.057Z,23.5
2017-06-19T07:51:54.597Z,23.57
2017-06-19T07:52:35.145Z,23.66
2017-06-19T07:53:15.697Z,23.7
2017-06-19T07:53:56.247Z,23.79
2017-06-19T07:54:36.789Z,23.9
2017-06-19T07:55:17.338Z,23.94
2017-06-19T07:55:57.880Z,23.91
2017-06-19T07:56:38.426Z,24.02
2017-06-19T07:57:18.976Z,24.03
2017-06-19T07:57:59.531Z,24.02
2017-06-19T07:58:40.081Z,24.16
2017-06-19T07:59:20.631Z,24.22
2017-06-19T08:00:01.182Z,24.2
2017-06-19T08:00:41.733Z,24.3
2017-06-19T08:01:22.283Z,24.28
2017-06-19T08:02:02.835Z,24.3
2017-06-19T08:02:43.385Z,24.22
2017-06-19T08:03:23.937Z,24.37
2017-06-19T08:04:04.487Z,24.43
2017-06-19T08:04:45.040Z,24.46
2017-06-19T08:05:25.595Z,24.52
2017-06-19T08:06:06.152Z,24.5
2017-06-19T08:06:46.703Z,24.62
2017-06-19T08:07:27.254Z,24.71
2017-06-19T08:08:07.806Z,24.77
2017-06-19T08:08:48.390Z,25.02
2017-06-19T08:09:28.939Z,24.96
2017-06-19T08:10:09.482Z,25.09
2017-06-19T08:10:50.039Z,25.06
2017-06-19T08:11:30.593Z,25.15
2017-06-19T08:12:11.143Z,25.23
2017-06-19T08:12:51.696Z,25.33
2017-06-19T08:13:32.239Z,25.4
2017-06-19T08:14:12.898Z,25.5
2017-06-19T08:14:53.339Z,25.58
2017-06-19T08:15:33.893Z,25.57
2017-06-19T08:16:14.441Z,25.6
2017-06-19T08:16:54.989Z,25.61
2017-06-19T08:17:35.543Z,25.64
2017-06-19T08:18:16.098Z,25.69
2017-06-19T08:18:56.647Z,25.61
2017-06-19T08:19:37.194Z,25.77
2017-06-19T08:20:17.743Z,25.91
2017-06-19T08:20:58.296Z,26.06
2017-06-19T08:21:38.846Z,26.25
2017-06-19T08:22:19.399Z,26.51
2017-06-19T08:22:59.947Z,26.57
2017-06-19T08:23:40.503Z,26.8
2017-06-19T08:24:21.059Z,26.91
2017-06-19T08:25:01.614Z,27.06
2017-06-19T08:25:42.163Z,27.18
2017-06-19T08:26:22.719Z,27.24
2017-06-19T08:27:03.270Z,27.39
2017-06-19T08:27:43.822Z,27.37
2017-06-19T08:28:24.375Z,27.5
2017-06-19T08:29:04.925Z,27.44
2017-06-19T08:29:45.477Z,27.65
2017-06-19T08:30:26.027Z,27.84
2017-06-19T08:31:06.578Z,28.09
2017-06-19T08:31:47.129Z,28.31
2017-06-19T08:32:27.678Z,28.62
2017-06-19T08:33:08.231Z,28.93
2017-06-19T08:33:48.781Z,29.16
2017-06-19T08:34:29.319Z,29.34
2017-06-19T08:35:09.877Z,29.37
2017-06-19T08:35:50.428Z,29.65
2017-06-19T08:36:30.978Z,29.78
2017-06-19T08:37:11.525Z,29.97
2017-06-19T08:37:52.069Z,30.35
2017-06-19T08:38:32.625Z,30.62
2017-06-19T08:39:13.176Z,30.82
2017-06-19T08:39:53.729Z,30.82
2017-06-19T08:40:34.282Z,30.72
2017-06-19T08:41:14.830Z,30.75
2017-06-19T08:41:55.376Z,30.86
2017-06-19T08:42:35.936Z,31.07
2017-06-19T08:43:16.488Z,31.23
2017-06-19T08:43:57.044Z,31.26
2017-06-19T08:44:37.598Z,31.48